createdAt,value
2017-05-28T00:02:05.164Z,55.60
2017-05-28T00:04:32.436Z,56.20
2017-05-28T00:06:59.360Z,56.50
2017-05-28T00:09:26.272Z,55.60
2017-05-28T00:11:53.540Z,55.90
2017-05-28T00:14:20.732Z,56.40
2017-05-28T00:16:47.669Z,57.30
2017-05-28T00:19:15.093Z,57.20
2017-05-28T00:21:42.013Z,56.70
2017-05-28T00:24:08.941Z,54.70
2017-05-28T00:26:36.340Z,55.20
2017-05-28T00:29:03.264Z,55.60
2017-05-28T00:31:30.183Z,54.80
2017-05-28T00:33:57.487Z,55.00
2017-05-28T00:36:24.424Z,55.50
2017-05-28T00:38:51.349Z,55.80
2017-05-28T00:41:18.629Z,55.80
2017-05-28T00:43:45.533Z,56.70
2017-05-28T00:46:12.452Z,54.90
2017-05-28T00:48:40.380Z,54.40
2017-05-28T00:51:07.292Z,54.00
2017-05-28T00:53:34.194Z,53.80
2017-05-28T00:56:01.539Z,54.70
2017-05-28T00:58:28.437Z,54.20
2017-05-28T01:00:55.354Z,54.60
2017-05-28T01:03:22.773Z,55.00
2017-05-28T01:05:49.731Z,55.60
2017-05-28T01:08:16.663Z,55.80
2017-05-28T01:10:44.387Z,54.70
2017-05-28T01:13:11.311Z,54.50
2017-05-28T01:15:38.224Z,54.10
2017-05-28T01:18:05.578Z,55.50
2017-05-28T01:20:32.520Z,55.40
2017-05-28T01:22:59.418Z,55.50
2017-05-28T01:25:27.045Z,56.10
2017-05-28T01:27:54.255Z,56.20
2017-05-28T01:30:21.156Z,56.40
2017-05-28T01:32:48.578Z,56.90
2017-05-28T01:35:15.539Z,57.30
2017-05-28T01:37:42.457Z,56.90
2017-05-28T01:40:09.808Z,56.80
2017-05-28T01:42:36.721Z,57.30
2017-05-28T01:45:03.656Z,57.00
2017-05-28T01:47:30.974Z,56.70
2017-05-28T01:49:57.873Z,57.60
2017-05-28T01:52:24.777Z,56.70
2017-05-28T01:54:52.111Z,58.10
2017-05-28T01:57:19.034Z,58.00
2017-05-28T01:59:46.000Z,56.70
2017-05-28T02:02:13.346Z,57.80
2017-05-28T02:04:40.221Z,57.70
2017-05-28T02:07:07.105Z,57.00
2017-05-28T02:09:34.385Z,56.50
2017-05-28T02:12:01.302Z,56.50
2017-05-28T02:14:28.205Z,57.20
2017-05-28T02:16:55.521Z,55.90
2017-05-28T02:19:22.432Z,56.50
2017-05-28T02:21:49.328Z,56.00
2017-05-28T02:24:16.588Z,56.20
2017-05-28T02:26:43.491Z,54.30
2017-05-28T02:29:10.404Z,54.70
2017-05-28T02:31:37.825Z,54.30
2017-05-28T02:34:04.876Z,54.60
2017-05-28T02:36:31.782Z,54.10
2017-05-28T02:38:59.052Z,54.80
2017-05-28T02:41:25.933Z,54.90
2017-05-28T02:43:52.840Z,55.80
2017-05-28T02:46:20.105Z,54.90
2017-05-28T02:48:47.002Z,54.30
2017-05-28T02:51:13.952Z,54.70
2017-05-28T02:53:41.228Z,55.20
2017-05-28T02:56:08.133Z,55.00
2017-05-28T02:58:35.045Z,54.70
2017-05-28T03:01:02.396Z,54.60
2017-05-28T03:03:29.316Z,55.20
2017-05-28T03:05:56.240Z,55.40
2017-05-28T03:08:23.509Z,54.50
2017-05-28T03:10:50.429Z,55.20
2017-05-28T03:13:17.353Z,55.60
2017-05-28T03:15:44.636Z,55.60
2017-05-28T03:18:11.568Z,55.70
2017-05-28T03:20:38.493Z,55.40
2017-05-28T03:23:05.794Z,55.40
2017-05-28T03:25:32.704Z,56.00
2017-05-28T03:27:59.679Z,55.50
2017-05-28T03:30:27.037Z,55.80
2017-05-28T03:32:53.948Z,55.70
2017-05-28T03:35:20.892Z,55.30
2017-05-28T03:37:48.272Z,55.80
2017-05-28T03:40:15.211Z,55.60
2017-05-28T03:42:42.185Z,55.70
2017-05-28T03:45:09.472Z,55.90
2017-05-28T03:47:36.416Z,55.60
2017-05-28T03:50:03.350Z,55.50
2017-05-28T03:52:30.625Z,55.70
2017-05-28T03:54:57.547Z,55.80
2017-05-28T03:57:24.437Z,56.00
2017-05-28T03:59:51.684Z,55.80
2017-05-28T04:02:18.613Z,55.10
2017-05-28T04:04:45.540Z,55.20
2017-05-28T04:07:12.829Z,55.10
2017-05-28T04:09:39.736Z,54.80
2017-05-28T04:12:06.695Z,55.00
2017-05-28T04:14:34.049Z,55.20
2017-05-28T04:17:00.981Z,55.10
2017-05-28T04:19:27.927Z,55.00
2017-05-28T04:21:55.279Z,54.60
2017-05-28T04:24:22.242Z,55.00
2017-05-28T04:26:49.279Z,55.00
2017-05-28T04:29:16.660Z,55.30
2017-05-28T04:31:43.712Z,55.00
2017-05-28T04:34:10.699Z,55.10
2017-05-28T04:36:38.072Z,54.70
2017-05-28T04:39:05.001Z,54.60
2017-05-28T04:41:31.943Z,54.60
2017-05-28T04:43:59.292Z,54.50
2017-05-28T04:46:26.231Z,54.50
2017-05-28T04:48:53.176Z,54.50
2017-05-28T04:51:20.532Z,54.00
2017-05-28T04:53:47.497Z,54.50
2017-05-28T04:56:14.397Z,55.50
2017-05-28T04:58:41.674Z,55.20
2017-05-28T05:01:08.621Z,54.70
2017-05-28T05:03:35.546Z,55.30
2017-05-28T05:06:02.919Z,54.70
2017-05-28T05:08:29.827Z,54.90
2017-05-28T05:10:56.751Z,54.90
2017-05-28T05:13:24.047Z,54.30
2017-05-28T05:15:50.939Z,53.80
2017-05-28T05:18:17.858Z,53.40
2017-05-28T05:20:45.185Z,53.30
2017-05-28T05:23:12.101Z,53.10
2017-05-28T05:25:39.005Z,53.40
2017-05-28T05:28:06.945Z,52.90
2017-05-28T05:30:33.897Z,53.00
2017-05-28T05:33:00.837Z,53.50
2017-05-28T05:35:28.165Z,52.80
2017-05-28T05:37:55.096Z,53.00
2017-05-28T05:40:22.061Z,53.00
2017-05-28T05:42:49.416Z,52.80
2017-05-28T05:45:16.369Z,53.40
2017-05-28T05:47:43.314Z,52.90
2017-05-28T05:50:10.636Z,53.10
2017-05-28T05:52:37.687Z,53.00
2017-05-28T05:55:04.632Z,53.10
2017-05-28T05:57:31.893Z,53.50
2017-05-28T05:59:58.805Z,53.70
2017-05-28T06:02:25.748Z,54.50
2017-05-28T06:04:53.024Z,53.70
2017-05-28T06:07:19.948Z,53.60
2017-05-28T06:09:47.384Z,54.30
2017-05-28T06:12:14.658Z,54.30
2017-05-28T06:14:41.587Z,53.80
2017-05-28T06:17:08.513Z,53.20
2017-05-28T06:19:35.785Z,54.20
2017-05-28T06:22:02.686Z,54.50
2017-05-28T06:24:29.604Z,54.80
2017-05-28T06:26:57.037Z,53.80
2017-05-28T06:29:23.938Z,54.60
2017-05-28T06:31:50.866Z,56.20
2017-05-28T06:34:18.151Z,54.70
2017-05-28T06:36:45.063Z,54.00
2017-05-28T06:39:11.995Z,52.90
2017-05-28T06:41:39.313Z,53.60
2017-05-28T06:44:06.244Z,53.40
2017-05-28T06:46:33.194Z,53.60
2017-05-28T06:49:00.525Z,53.20
2017-05-28T06:51:27.480Z,53.80
2017-05-28T06:53:54.434Z,55.10
2017-05-28T06:56:21.788Z,54.00
2017-05-28T06:58:48.708Z,53.00
2017-05-28T07:01:15.636Z,53.90
2017-05-28T07:03:42.934Z,53.40
2017-05-28T07:06:09.879Z,53.20
2017-05-28T07:08:36.801Z,53.70
2017-05-28T07:11:04.163Z,54.40
2017-05-28T07:13:31.073Z,54.40
2017-05-28T07:15:58.005Z,54.80
2017-05-28T07:18:25.396Z,54.40
2017-05-28T07:20:52.341Z,54.80
2017-05-28T07:23:19.292Z,55.50
2017-05-28T07:25:46.644Z,53.70
2017-05-28T07:28:13.564Z,55.20
2017-05-28T07:30:40.511Z,54.50
2017-05-28T07:33:07.868Z,54.40
2017-05-28T07:35:34.781Z,54.40
2017-05-28T07:38:01.705Z,53.70
2017-05-28T07:40:28.956Z,52.70
2017-05-28T07:42:55.897Z,53.20
2017-05-28T07:45:22.850Z,53.50
2017-05-28T07:47:50.240Z,53.70
2017-05-28T07:50:17.177Z,54.00
2017-05-28T07:52:50.670Z,54.20
2017-05-28T07:55:17.604Z,53.40
2017-05-28T07:57:44.544Z,53.90
2017-05-28T08:00:11.809Z,54.20
2017-05-28T08:02:38.751Z,53.60
2017-05-28T08:05:05.681Z,54.40
2017-05-28T08:07:33.057Z,53.70
2017-05-28T08:09:59.958Z,53.50
2017-05-28T08:12:26.873Z,54.10
2017-05-28T08:14:54.168Z,53.60
2017-05-28T08:17:21.089Z,51.60
2017-05-28T08:19:48.040Z,52.50
2017-05-28T08:22:15.419Z,52.80
2017-05-28T08:24:42.333Z,52.10
2017-05-28T08:27:09.284Z,51.70
2017-05-28T08:29:36.645Z,51.80
2017-05-28T08:32:03.589Z,52.40
2017-05-28T08:34:30.503Z,52.90
2017-05-28T08:36:57.782Z,52.30
2017-05-28T08:39:24.725Z,52.80
2017-05-28T08:41:51.657Z,53.20
2017-05-28T08:44:19.030Z,52.00
2017-05-28T08:46:45.963Z,52.80
2017-05-28T08:49:12.919Z,52.40
2017-05-28T08:51:40.252Z,52.10
2017-05-28T08:54:07.160Z,52.70
2017-05-28T08:56:34.599Z,53.80
2017-05-28T08:59:01.845Z,53.20
2017-05-28T09:01:28.778Z,53.50
2017-05-28T09:03:55.700Z,54.30
2017-05-28T09:06:23.056Z,53.90
2017-05-28T09:08:50.094Z,54.50
2017-05-28T09:11:17.025Z,53.30
2017-05-28T09:13:44.398Z,54.30
2017-05-28T09:16:11.320Z,53.30
2017-05-28T09:18:38.248Z,53.90
2017-05-28T09:21:06.251Z,54.40
2017-05-28T09:23:33.181Z,53.20
2017-05-28T09:26:00.124Z,54.20
2017-05-28T09:28:27.469Z,55.00
2017-05-28T09:30:54.433Z,54.90
2017-05-28T09:33:21.562Z,53.80
2017-05-28T09:35:48.931Z,54.10
2017-05-28T09:38:15.835Z,54.30
2017-05-28T09:40:42.794Z,55.40
2017-05-28T09:43:10.155Z,55.60
2017-05-28T09:45:37.055Z,55.40
2017-05-28T09:48:04.140Z,55.40
2017-05-28T09:50:31.425Z,55.60
2017-05-28T09:52:58.361Z,54.10
2017-05-28T09:55:25.381Z,53.80
2017-05-28T09:57:52.740Z,54.80
2017-05-28T10:00:19.666Z,53.90
2017-05-28T10:02:46.582Z,54.00
2017-05-28T10:05:13.857Z,54.10
2017-05-28T10:07:40.813Z,53.80
2017-05-28T10:10:07.738Z,53.70
2017-05-28T10:12:35.124Z,53.60
2017-05-28T10:15:02.090Z,53.30
2017-05-28T10:17:29.040Z,51.30
2017-05-28T10:19:56.342Z,50.60
2017-05-28T10:22:23.298Z,52.00
2017-05-28T10:24:50.254Z,49.20
2017-05-28T10:27:18.298Z,50.80
2017-05-28T10:29:45.240Z,50.50
2017-05-28T10:32:12.187Z,52.40
2017-05-28T10:34:39.532Z,53.20
2017-05-28T10:37:06.464Z,50.10
2017-05-28T10:39:33.414Z,50.10
2017-05-28T10:42:00.764Z,51.10
2017-05-28T10:44:27.701Z,51.00
2017-05-28T10:46:54.641Z,51.20
2017-05-28T10:49:22.013Z,51.30
2017-05-28T10:51:48.924Z,49.70
2017-05-28T10:54:15.837Z,50.70
2017-05-28T10:56:43.091Z,50.70
2017-05-28T10:59:10.033Z,48.00
2017-05-28T11:01:36.991Z,51.40
2017-05-28T11:04:04.291Z,51.70
2017-05-28T11:06:31.256Z,51.00
2017-05-28T11:08:58.220Z,51.60
2017-05-28T11:11:25.495Z,52.40
2017-05-28T11:13:52.457Z,51.60
2017-05-28T11:16:19.400Z,51.20
2017-05-28T11:18:47.070Z,51.00
2017-05-28T11:21:14.005Z,51.90
2017-05-28T11:23:40.991Z,51.00
2017-05-28T11:26:08.289Z,50.50
2017-05-28T11:28:35.221Z,49.40
2017-05-28T11:31:02.149Z,48.50
2017-05-28T11:33:30.055Z,49.50
2017-05-28T11:35:56.957Z,48.30
2017-05-28T11:38:23.917Z,49.70
2017-05-28T11:40:51.275Z,49.70
2017-05-28T11:43:18.228Z,50.00
2017-05-28T11:45:45.174Z,47.50
2017-05-28T11:48:12.536Z,47.30
2017-05-28T11:50:39.480Z,48.40
2017-05-28T11:53:06.412Z,48.00
2017-05-28T11:55:33.741Z,49.10
2017-05-28T11:58:00.703Z,48.90
2017-05-28T12:00:27.650Z,49.40
2017-05-28T12:02:55.103Z,48.80
2017-05-28T12:05:22.004Z,47.70
2017-05-28T12:07:48.920Z,48.40
2017-05-28T12:10:16.335Z,48.80
2017-05-28T12:12:43.381Z,49.30
2017-05-28T12:15:10.387Z,48.00
2017-05-28T12:17:37.882Z,47.60
2017-05-28T12:20:04.830Z,47.80
2017-05-28T12:22:31.769Z,48.60
2017-05-28T12:24:59.103Z,48.30
2017-05-28T12:27:26.075Z,48.10
2017-05-28T12:29:53.000Z,49.10
2017-05-28T12:32:20.366Z,47.60
2017-05-28T12:34:47.275Z,48.10
2017-05-28T12:37:14.343Z,48.40
2017-05-28T12:39:41.703Z,48.20
2017-05-28T12:42:09.458Z,48.60
2017-05-28T12:44:36.408Z,48.60
2017-05-28T12:47:03.753Z,48.70
2017-05-28T12:49:30.758Z,49.10
2017-05-28T12:51:57.714Z,49.70
2017-05-28T12:54:25.091Z,48.20
2017-05-28T12:56:52.136Z,49.10
2017-05-28T12:59:19.087Z,48.00
2017-05-28T13:01:46.409Z,49.20
2017-05-28T13:04:13.326Z,48.60
2017-05-28T13:06:40.525Z,47.50
2017-05-28T13:09:07.864Z,47.50
2017-05-28T13:11:34.808Z,46.80
2017-05-28T13:14:01.761Z,46.70
2017-05-28T13:16:29.043Z,48.30
2017-05-28T13:18:56.056Z,49.00
2017-05-28T13:21:22.978Z,48.70
2017-05-28T13:23:50.345Z,48.30
2017-05-28T13:26:17.278Z,47.70
2017-05-28T13:28:44.222Z,46.70
2017-05-28T13:31:11.589Z,46.20
2017-05-28T13:33:38.524Z,46.20
2017-05-28T13:36:05.472Z,46.40
2017-05-28T13:38:32.815Z,47.60
2017-05-28T13:40:59.732Z,48.00
2017-05-28T13:43:26.678Z,47.20
2017-05-28T13:45:53.957Z,45.30
2017-05-28T13:48:20.857Z,46.40
2017-05-28T13:50:47.802Z,46.10
2017-05-28T13:53:15.101Z,46.20
2017-05-28T13:55:42.051Z,45.00
2017-05-28T13:58:08.992Z,45.70
2017-05-28T14:00:36.325Z,47.30
2017-05-28T14:03:03.273Z,49.40
2017-05-28T14:05:30.209Z,50.10
2017-05-28T14:07:57.552Z,52.50
2017-05-28T14:10:24.485Z,55.10
2017-05-28T14:12:51.416Z,56.00
2017-05-28T14:15:18.693Z,57.30
2017-05-28T14:17:45.612Z,57.00
2017-05-28T14:20:12.587Z,57.10
2017-05-28T14:22:39.944Z,58.20
2017-05-28T14:25:06.886Z,57.50
2017-05-28T14:27:33.865Z,57.20
2017-05-28T14:30:01.288Z,56.30
2017-05-28T14:32:28.244Z,57.90
2017-05-28T14:34:55.232Z,58.00
2017-05-28T14:37:22.546Z,57.90
2017-05-28T14:39:50.120Z,58.10
2017-05-28T14:42:17.040Z,56.00
2017-05-28T14:44:44.286Z,55.60
2017-05-28T14:47:11.193Z,56.40
2017-05-28T14:49:38.124Z,56.40
2017-05-28T14:52:05.509Z,58.10
2017-05-28T14:54:32.441Z,57.60
2017-05-28T14:56:59.368Z,57.80
2017-05-28T14:59:26.733Z,58.60
2017-05-28T15:01:53.641Z,55.70
2017-05-28T15:04:20.580Z,53.60
2017-05-28T15:06:47.868Z,53.80
2017-05-28T15:09:14.773Z,51.60
2017-05-28T15:11:41.719Z,48.70
2017-05-28T15:14:09.100Z,48.70
2017-05-28T15:16:36.158Z,49.10
2017-05-28T15:19:03.063Z,49.40
2017-05-28T15:21:30.445Z,47.60
2017-05-28T15:23:57.377Z,47.90
2017-05-28T15:26:24.316Z,45.80
2017-05-28T15:28:51.585Z,44.50
2017-05-28T15:31:18.503Z,41.50
2017-05-28T15:33:45.451Z,39.40
2017-05-28T15:36:12.813Z,41.30
2017-05-28T15:38:39.730Z,43.00
2017-05-28T15:41:06.661Z,44.50
2017-05-28T15:43:33.964Z,45.60
2017-05-28T15:46:00.886Z,46.30
2017-05-28T15:48:27.848Z,43.20
2017-05-28T15:50:55.192Z,42.00
2017-05-28T15:53:22.105Z,42.20
2017-05-28T15:55:49.513Z,40.10
2017-05-28T15:58:16.765Z,37.80
2017-05-28T16:00:43.718Z,39.20
2017-05-28T16:03:10.643Z,37.70
2017-05-28T16:05:37.972Z,37.20
2017-05-28T16:08:04.881Z,36.20
2017-05-28T16:10:31.809Z,36.70
2017-05-28T16:12:59.101Z,36.20
2017-05-28T16:15:26.065Z,35.50
2017-05-28T16:17:52.995Z,37.60
2017-05-28T16:20:20.367Z,37.40
2017-05-28T16:22:47.263Z,35.50
2017-05-28T16:25:14.192Z,36.30
2017-05-28T16:27:41.488Z,38.70
2017-05-28T16:30:08.416Z,42.30
2017-05-28T16:32:35.352Z,44.00
2017-05-28T16:35:02.744Z,41.40
2017-05-28T16:37:29.672Z,41.10
2017-05-28T16:39:56.750Z,43.00
2017-05-28T16:42:24.345Z,46.80
2017-05-28T16:44:51.349Z,45.70
2017-05-28T16:47:18.679Z,42.30
2017-05-28T16:49:45.973Z,39.20
2017-05-28T16:52:12.911Z,38.90
2017-05-28T16:54:39.852Z,40.50
2017-05-28T16:57:07.260Z,38.80
2017-05-28T16:59:34.183Z,37.40
2017-05-28T17:02:01.492Z,38.80
2017-05-28T17:04:28.806Z,39.00
2017-05-28T17:06:55.704Z,38.50
2017-05-28T17:09:22.649Z,36.60
2017-05-28T17:11:50.047Z,37.80
2017-05-28T17:14:16.986Z,37.30
2017-05-28T17:16:43.980Z,35.80
2017-05-28T17:19:11.284Z,36.00
2017-05-28T17:21:38.289Z,35.50
2017-05-28T17:24:05.245Z,35.20
2017-05-28T17:26:32.507Z,35.10
2017-05-28T17:29:00.577Z,38.30
2017-05-28T17:31:27.493Z,38.50
2017-05-28T17:33:54.781Z,39.00
2017-05-28T17:36:21.732Z,37.00
2017-05-28T17:38:48.664Z,37.40
2017-05-28T17:41:16.323Z,37.10
2017-05-28T17:43:43.383Z,36.90
2017-05-28T17:46:10.397Z,38.00
2017-05-28T17:48:37.790Z,37.40
2017-05-28T17:51:04.750Z,38.70
2017-05-28T17:53:31.684Z,40.00
2017-05-28T17:55:59.109Z,40.60
2017-05-28T17:58:26.034Z,40.00
2017-05-28T18:00:53.024Z,40.50
2017-05-28T18:03:20.367Z,41.60
2017-05-28T18:05:47.344Z,40.50
2017-05-28T18:08:14.281Z,42.00
2017-05-28T18:10:41.701Z,39.30
2017-05-28T18:13:08.613Z,40.90
2017-05-28T18:15:35.671Z,41.50
2017-05-28T18:18:03.041Z,41.30
2017-05-28T18:20:29.972Z,45.10
2017-05-28T18:22:56.933Z,42.90
2017-05-28T18:25:24.238Z,43.70
2017-05-28T18:27:51.176Z,43.40
2017-05-28T18:30:18.086Z,44.50
2017-05-28T18:32:45.407Z,43.70
2017-05-28T18:35:12.384Z,44.80
2017-05-28T18:37:39.304Z,46.00
2017-05-28T18:40:05.892Z,46.00
2017-05-28T18:42:32.840Z,45.70
2017-05-28T18:44:59.779Z,47.00
2017-05-28T18:47:27.083Z,48.70
2017-05-28T18:49:54.098Z,48.60
2017-05-28T18:52:21.012Z,48.10
2017-05-28T18:54:48.390Z,48.50
2017-05-28T18:57:15.304Z,50.20
2017-05-28T18:59:42.248Z,51.10
2017-05-28T19:02:09.632Z,50.80
2017-05-28T19:04:36.584Z,51.60
2017-05-28T19:07:03.544Z,50.70
2017-05-28T19:09:30.852Z,51.80
2017-05-28T19:11:57.784Z,51.30
2017-05-28T19:14:24.712Z,52.50
2017-05-28T19:16:52.096Z,52.80
2017-05-28T19:19:19.034Z,49.80
2017-05-28T19:21:46.188Z,50.50
2017-05-28T19:24:13.545Z,52.00
2017-05-28T19:26:40.471Z,53.10
2017-05-28T19:29:07.370Z,51.50
2017-05-28T19:31:34.674Z,52.50
2017-05-28T19:34:01.596Z,51.50
2017-05-28T19:36:28.510Z,51.60
2017-05-28T19:38:55.824Z,51.80
2017-05-28T19:41:22.720Z,51.90
2017-05-28T19:43:49.675Z,51.90
2017-05-28T19:46:16.956Z,53.00
2017-05-28T19:48:43.855Z,54.00
2017-05-28T19:51:10.790Z,53.90
2017-05-28T19:53:38.070Z,52.90
2017-05-28T19:56:04.969Z,53.20
2017-05-28T19:58:31.912Z,54.20
2017-05-28T20:00:59.325Z,52.90
2017-05-28T20:03:26.237Z,53.40
2017-05-28T20:05:53.159Z,52.40
2017-05-28T20:08:20.553Z,51.60
2017-05-28T20:10:47.503Z,51.80
2017-05-28T20:13:14.446Z,52.60
2017-05-28T20:15:41.787Z,51.50
2017-05-28T20:18:08.703Z,52.50
2017-05-28T20:20:35.637Z,51.40
2017-05-28T20:23:03.000Z,51.10
2017-05-28T20:25:29.929Z,50.20
2017-05-28T20:27:56.870Z,52.00
2017-05-28T20:30:24.175Z,51.40
2017-05-28T20:32:51.104Z,51.30
2017-05-28T20:35:18.015Z,51.70
2017-05-28T20:37:45.267Z,53.30
2017-05-28T20:40:12.206Z,52.70
2017-05-28T20:42:39.123Z,52.40
2017-05-28T20:45:06.451Z,53.60
2017-05-28T20:47:33.371Z,55.60
2017-05-28T20:50:00.305Z,56.10
2017-05-28T20:52:27.596Z,57.30
2017-05-28T20:54:54.501Z,56.60
2017-05-28T20:57:21.405Z,57.70
2017-05-28T20:59:48.712Z,58.40
2017-05-28T21:02:15.602Z,58.20
2017-05-28T21:04:42.524Z,59.20
2017-05-28T21:07:09.852Z,58.30
2017-05-28T21:09:36.749Z,58.50
2017-05-28T21:12:04.158Z,59.00
2017-05-28T21:14:31.499Z,58.20
2017-05-28T21:16:58.431Z,59.10
2017-05-28T21:19:25.349Z,59.20
2017-05-28T21:21:52.612Z,59.00
2017-05-28T21:24:19.546Z,57.10
2017-05-28T21:26:46.486Z,57.40
2017-05-28T21:29:13.753Z,58.10
2017-05-28T21:31:40.665Z,59.40
2017-05-28T21:34:07.649Z,60.30
2017-05-28T21:36:34.954Z,60.00
2017-05-28T21:39:01.864Z,60.60
2017-05-28T21:41:28.756Z,60.20
2017-05-28T21:43:56.019Z,58.00
2017-05-28T21:46:22.951Z,57.10
2017-05-28T21:48:49.922Z,56.20
2017-05-28T21:51:17.287Z,56.40
2017-05-28T21:53:44.215Z,57.50
2017-05-28T21:56:11.148Z,57.80
2017-05-28T21:58:38.510Z,58.40
2017-05-28T22:01:06.088Z,58.60
2017-05-28T22:03:32.999Z,58.00
2017-05-28T22:06:00.259Z,59.70
2017-05-28T22:08:27.161Z,58.60
2017-05-28T22:10:54.100Z,58.60
2017-05-28T22:13:21.393Z,59.70
2017-05-28T22:15:48.307Z,59.20
2017-05-28T22:18:15.220Z,58.80
2017-05-28T22:20:42.546Z,59.10
2017-05-28T22:23:09.484Z,58.30
2017-05-28T22:25:36.408Z,58.00
2017-05-28T22:28:03.759Z,58.30
2017-05-28T22:30:30.740Z,58.50
2017-05-28T22:32:57.764Z,61.50
2017-05-28T22:35:25.551Z,63.10
2017-05-28T22:37:52.512Z,63.80
2017-05-28T22:40:19.416Z,63.70
2017-05-28T22:42:46.752Z,63.30
2017-05-28T22:45:13.722Z,63.30
2017-05-28T22:47:40.660Z,63.30
2017-05-28T22:50:07.989Z,63.20
2017-05-28T22:52:34.904Z,63.80
2017-05-28T22:55:01.803Z,65.20
2017-05-28T22:57:29.117Z,63.40
2017-05-28T22:59:56.028Z,64.80
2017-05-28T23:02:22.972Z,65.80
2017-05-28T23:04:50.268Z,67.20
2017-05-28T23:07:17.153Z,64.90
2017-05-28T23:09:44.050Z,66.60
2017-05-28T23:12:11.294Z,66.90
2017-05-28T23:14:38.219Z,67.00
2017-05-28T23:17:05.116Z,67.00
2017-05-28T23:19:32.367Z,65.30
2017-05-28T23:21:59.277Z,65.80
2017-05-28T23:24:26.204Z,65.60
2017-05-28T23:26:53.468Z,66.90
2017-05-28T23:29:20.371Z,67.60
2017-05-28T23:31:47.312Z,68.20
2017-05-28T23:34:14.589Z,68.30
2017-05-28T23:36:41.489Z,66.90
2017-05-28T23:39:08.408Z,67.20
2017-05-28T23:41:35.640Z,66.60
2017-05-28T23:44:02.549Z,68.30
2017-05-28T23:46:29.519Z,70.60
2017-05-28T23:48:56.929Z,69.50
2017-05-28T23:51:23.851Z,68.50
2017-05-28T23:53:50.745Z,66.60
2017-05-28T23:56:18.010Z,66.50
2017-05-28T23:58:44.924Z,67.90
